Edge Hill, Georgia
Current Conditions -  °F | °C
As of 11:15 PM on Tuesday 21 Oct 2014 (Local Time) from KHQU Reporting Station
Clear Clear  
Wind Chill: 57°   Ceiling: Unl
Heat Index: 57°   Visibility: 10mi
Dew Point: 55°   Wind: 0mph
Humidity: 92%   Direction: NA
Pressure: 30.03"   Gusts: NA
Location:  33.2563°N, 82.5721°W
Report Text: KHQU 220315Z AUTO 00000KT 10SM CLR 14/13 A3003 RMK AO1 T01390127
Loading
Personal Weather Stations






























Interactive Weather Map
Tropical Storm Tracking
New forecast layout! Learn more

10-Day Weather Forecast

Advertisements
Track Severe Weather on mobile